Norway House Airport
CYNE : now visible

Airfield :











YOU CAN JOIN US ON...

 
LOGIN :

Register | Disclaimer

   EN    FR    IT 

 









Legend :    VFR   Marginal VFR   IFR   Intensive IFR   Very Intensive IFR
Visi :
Ceiling :
>= 8 km
>= 3000ft
5 to 8 km
1000 to 3000 ft
1500m to 5 km
500 to 1000 ft
800 to 1500m
200 to 500 ft
< 800m
< 200 ft
Symbols :   Thunderstorms  Fog  Heavy snow  Heavy precipitations  Wind > 20 kt






- Airport Elevation : 734 ft
- IATA code : YNE


CYNE - Norway House

CURRENT METAR :
  • 301700Z AUTO 24005KT 180V310 9SM CLR 25/18 A2993 RMK SLP141 DENSITY ALT 2100FT

EXPIRED METARs :
  • 301600Z AUTO 28005KT 210V320 7SM CLR 24/17 A2994 RMK SLP143 DENSITY ALT 1900FT
  • 301550Z AUTO 25004KT 200V340 6SM HZ CLR 23/17 A2994 RMK SLP142 DENSITY ALT 1900FT
  • 301500Z AUTO 22007KT 180V270 5SM HZ FEW110 22/18 A2994 RMK SLP143 DENSITY ALT 1800FT
  • 301400Z AUTO VRB02KT 5SM HZ OVC081 20/17 A2994 RMK SLP144 DENSITY ALT 1500FT

TAF TAF CYNE
Valid from the 30 at 13:00 until the 31 at 01:00 UTC


301239Z 3013/3101 24003KT 6SM BR SCT080 BKN150
TEMPO 3013/3016 2SM FU BR BKN080
FM301600 27008KT P6SM FEW080
TEMPO 3016/3018 3SM FU
FM301800 31010KT P6SM SCT070
TEMPO 3018/3021 P6SM -SHRA VCTS BKN070CB
FM302100 33010G20KT P6SM SCT080
TEMPO 3021/3101 BKN080 RMK FCST BASED ON AUTO OBS. NXT FCST BY 301900Z
CZWG FIR / North America



MET'MAP, your aeronautical weather chart ! - Copyright ORBIFLY December 2007 - Disclaimer

ORBIFLY MET'MAP TEAM :

Programming & Development : Alexandra Zaïnal
Concept & original design : Baudouin d'Aumeries
Assistance for programming : Marc-Olivier Méhu
Technical & hardware support : Manuel Goepfert

Contact : metmap@orbifly.com




SOURCES & CREDITS :

   NOAA       Earth
Advisory